createdAt,value
2022-11-25T00:01:31.724Z,6.43
2022-11-25T00:03:59.521Z,6.17
2022-11-25T00:06:29.485Z,6.10
2022-11-25T00:09:08.544Z,6.04
2022-11-25T00:11:36.924Z,6.10
2022-11-25T00:14:04.569Z,6.12
2022-11-25T00:16:31.723Z,6.24
2022-11-25T00:18:59.229Z,6.01
2022-11-25T00:21:29.337Z,6.20
2022-11-25T00:24:00.958Z,6.14
2022-11-25T00:26:29.483Z,6.18
2022-11-25T00:28:59.878Z,5.96
2022-11-25T00:31:32.794Z,5.75
2022-11-25T00:33:59.766Z,5.77
2022-11-25T00:36:32.349Z,5.79
2022-11-25T00:39:03.533Z,5.71
2022-11-25T00:41:50.102Z,5.65
2022-11-25T00:44:38.406Z,5.69
2022-11-25T00:47:12.417Z,5.82
2022-11-25T00:49:41.391Z,5.67
2022-11-25T00:52:09.593Z,5.52
2022-11-25T00:54:36.808Z,5.52
2022-11-25T00:57:04.147Z,5.57
2022-11-25T00:59:31.178Z,5.49
2022-11-25T01:02:00.209Z,5.50
2022-11-25T01:04:27.249Z,5.26
2022-11-25T01:06:56.816Z,5.22
2022-11-25T01:09:24.000Z,5.31
2022-11-25T01:11:51.651Z,5.15
2022-11-25T01:14:19.534Z,5.19
2022-11-25T01:16:48.076Z,4.89
2022-11-25T01:19:16.359Z,4.98
2022-11-25T01:21:43.536Z,4.96
2022-11-25T01:24:16.095Z,4.84
2022-11-25T01:26:44.534Z,5.12
2022-11-25T01:29:16.896Z,5.14
2022-11-25T01:31:45.124Z,5.42
2022-11-25T01:34:20.659Z,5.26
2022-11-25T01:36:48.227Z,5.19
2022-11-25T01:39:21.129Z,5.39
2022-11-25T01:41:49.018Z,5.49
2022-11-25T01:44:17.295Z,5.38
2022-11-25T01:46:47.277Z,5.37
2022-11-25T01:49:24.308Z,5.53
2022-11-25T01:52:01.611Z,5.33
2022-11-25T01:54:33.458Z,5.58
2022-11-25T01:57:08.893Z,5.64
2022-11-25T01:59:42.845Z,5.69
2022-11-25T02:02:10.424Z,5.55
2022-11-25T02:04:39.537Z,5.60
2022-11-25T02:07:41.328Z,5.72
2022-11-25T02:10:14.531Z,5.68
2022-11-25T02:12:45.708Z,5.50
2022-11-25T02:15:13.869Z,5.68
2022-11-25T02:17:42.245Z,5.86
2022-11-25T02:20:20.685Z,5.75
2022-11-25T02:23:19.674Z,5.87
2022-11-25T02:25:47.638Z,5.88
2022-11-25T02:28:37.495Z,5.81
2022-11-25T02:31:07.821Z,5.79
2022-11-25T02:33:36.597Z,5.88
2022-11-25T02:36:07.157Z,6.11
2022-11-25T02:38:47.818Z,6.26
2022-11-25T02:41:19.804Z,6.24
2022-11-25T02:43:51.612Z,6.10
2022-11-25T02:46:23.652Z,6.34
2022-11-25T02:49:09.347Z,6.39
2022-11-25T02:51:38.262Z,6.17
2022-11-25T02:54:05.510Z,6.13
2022-11-25T02:56:35.195Z,6.22
2022-11-25T02:59:02.874Z,6.05
2022-11-25T03:01:35.366Z,6.12
2022-11-25T03:04:05.914Z,6.14
2022-11-25T03:06:33.380Z,5.97
2022-11-25T03:09:00.523Z,5.92
2022-11-25T03:11:46.283Z,5.94
2022-11-25T03:14:14.886Z,5.98
2022-11-25T03:16:43.087Z,6.01
2022-11-25T03:19:10.129Z,5.92
2022-11-25T03:21:36.977Z,5.95
2022-11-25T03:24:04.058Z,5.87
2022-11-25T03:26:31.410Z,5.85
2022-11-25T03:28:58.407Z,5.87
2022-11-25T03:31:25.387Z,5.91
2022-11-25T03:33:52.481Z,6.00
2022-11-25T03:36:21.240Z,6.23
2022-11-25T03:38:48.389Z,6.19
2022-11-25T03:41:15.280Z,6.05
2022-11-25T03:43:42.393Z,6.01
2022-11-25T03:46:09.356Z,6.03
2022-11-25T03:48:36.638Z,6.17
2022-11-25T03:51:03.828Z,6.08
2022-11-25T03:53:30.762Z,5.87
2022-11-25T03:56:00.135Z,5.69
2022-11-25T03:58:27.088Z,5.73
2022-11-25T04:00:55.293Z,5.60
2022-11-25T04:03:22.496Z,5.59
2022-11-25T04:05:49.379Z,5.65
2022-11-25T04:08:16.713Z,5.72
2022-11-25T04:10:45.245Z,5.74
2022-11-25T04:13:12.580Z,5.93
2022-11-25T04:15:49.842Z,5.88
2022-11-25T04:18:19.738Z,5.91
2022-11-25T04:20:50.148Z,5.98
2022-11-25T04:23:17.155Z,6.04
2022-11-25T04:25:54.877Z,5.92
2022-11-25T04:28:31.123Z,6.04
2022-11-25T04:30:58.396Z,5.92
2022-11-25T04:33:25.546Z,5.99
2022-11-25T04:35:53.200Z,6.04
2022-11-25T04:38:20.883Z,6.07
2022-11-25T04:40:48.719Z,6.25
2022-11-25T04:43:21.979Z,6.33
2022-11-25T04:46:15.953Z,6.30
2022-11-25T04:48:46.709Z,6.15
2022-11-25T04:51:15.372Z,6.18
2022-11-25T04:53:44.103Z,6.08
2022-11-25T04:56:18.731Z,6.01
2022-11-25T04:59:05.400Z,6.04
2022-11-25T05:01:33.987Z,6.04
2022-11-25T05:04:10.547Z,6.02
2022-11-25T05:06:37.753Z,6.00
2022-11-25T05:09:05.816Z,5.93
2022-11-25T05:11:38.033Z,5.92
2022-11-25T05:14:05.536Z,6.00
2022-11-25T05:16:32.915Z,5.97
2022-11-25T05:19:00.520Z,6.00
2022-11-25T05:21:27.605Z,6.04
2022-11-25T05:23:56.079Z,6.09
2022-11-25T05:26:24.447Z,6.11
2022-11-25T05:28:53.905Z,6.43
2022-11-25T05:31:21.058Z,6.61
2022-11-25T05:33:48.846Z,6.93
2022-11-25T05:36:16.980Z,7.22
2022-11-25T05:38:46.395Z,7.44
2022-11-25T05:41:18.811Z,7.43
2022-11-25T05:43:47.332Z,7.00
2022-11-25T05:46:14.945Z,6.72
2022-11-25T05:48:53.397Z,6.45
2022-11-25T05:51:20.889Z,6.54
2022-11-25T05:53:48.225Z,6.52
2022-11-25T05:56:15.360Z,6.38
2022-11-25T05:59:05.834Z,6.51
2022-11-25T06:01:57.590Z,6.38
2022-11-25T06:04:24.921Z,6.47
2022-11-25T06:06:51.913Z,6.66
2022-11-25T06:09:18.938Z,6.52
2022-11-25T06:11:45.860Z,6.67
2022-11-25T06:14:12.788Z,6.69
2022-11-25T06:16:41.293Z,6.77
2022-11-25T06:19:22.951Z,6.82
2022-11-25T06:21:49.847Z,6.89
2022-11-25T06:24:16.936Z,6.92
2022-11-25T06:26:46.048Z,6.89
2022-11-25T06:29:12.923Z,6.89
2022-11-25T06:31:43.105Z,7.10
2022-11-25T06:34:27.918Z,7.05
2022-11-25T06:36:55.172Z,7.04
2022-11-25T06:39:22.067Z,6.97
2022-11-25T06:41:48.949Z,7.21
2022-11-25T06:44:15.951Z,7.15
2022-11-25T06:46:42.945Z,7.29
2022-11-25T06:49:09.955Z,7.29
2022-11-25T06:51:36.825Z,7.30
2022-11-25T06:54:03.896Z,8.05
2022-11-25T06:56:30.856Z,7.82
2022-11-25T06:58:57.797Z,7.76
2022-11-25T07:01:29.721Z,7.90
2022-11-25T07:04:03.429Z,7.95
2022-11-25T07:06:32.041Z,8.17
2022-11-25T07:08:59.357Z,8.92
2022-11-25T07:11:29.396Z,8.45
2022-11-25T07:13:59.129Z,9.88
2022-11-25T07:16:27.397Z,10.05
2022-11-25T07:18:54.795Z,10.65
2022-11-25T07:21:25.484Z,9.84
2022-11-25T07:23:53.116Z,10.83
2022-11-25T07:26:25.357Z,10.65
2022-11-25T07:28:54.005Z,10.56
2022-11-25T07:31:31.750Z,9.96
2022-11-25T07:34:12.387Z,10.30
2022-11-25T07:36:39.632Z,8.68
2022-11-25T07:39:09.511Z,8.75
2022-11-25T07:41:36.771Z,8.35
2022-11-25T07:44:06.102Z,8.12
2022-11-25T07:46:47.455Z,8.13
2022-11-25T07:49:21.026Z,8.50
2022-11-25T07:51:56.800Z,8.66
2022-11-25T07:54:24.491Z,9.03
2022-11-25T07:56:51.951Z,9.16
2022-11-25T07:59:22.108Z,10.04
2022-11-25T08:01:54.091Z,9.64
2022-11-25T08:04:21.719Z,10.33
2022-11-25T08:06:51.092Z,10.73
2022-11-25T08:09:21.605Z,10.74
2022-11-25T08:11:49.520Z,9.76
2022-11-25T08:14:17.630Z,9.26
2022-11-25T08:16:44.910Z,9.76
2022-11-25T08:19:14.545Z,10.23
2022-11-25T08:21:42.621Z,9.35
2022-11-25T08:24:16.833Z,9.63
2022-11-25T08:26:44.197Z,9.90
2022-11-25T08:29:15.423Z,10.01
2022-11-25T08:31:43.412Z,8.92
2022-11-25T08:34:18.522Z,8.65
2022-11-25T08:36:48.654Z,8.19
2022-11-25T08:39:44.143Z,8.48
2022-11-25T08:42:06.109Z,8.45
2022-11-25T08:44:33.112Z,8.13
2022-11-25T08:47:00.167Z,8.42
2022-11-25T08:49:29.409Z,8.41
2022-11-25T08:51:56.373Z,8.12
2022-11-25T08:54:23.277Z,8.10
2022-11-25T08:56:50.248Z,8.08
2022-11-25T08:59:17.145Z,8.04
2022-11-25T09:01:44.383Z,7.82
2022-11-25T09:04:11.548Z,7.88
2022-11-25T09:06:39.218Z,7.87
2022-11-25T09:09:06.908Z,7.99
2022-11-25T09:11:33.943Z,7.86
2022-11-25T09:14:00.923Z,8.05
2022-11-25T09:16:28.444Z,8.13
2022-11-25T09:18:56.388Z,8.04
2022-11-25T09:21:25.044Z,8.09
2022-11-25T09:23:54.110Z,8.23
2022-11-25T09:26:22.574Z,7.86
2022-11-25T09:28:49.739Z,8.35
2022-11-25T09:31:17.470Z,8.30
2022-11-25T09:33:45.156Z,8.46
2022-11-25T09:36:13.816Z,8.43
2022-11-25T09:38:44.212Z,8.31
2022-11-25T09:41:39.750Z,8.66
2022-11-25T09:44:41.594Z,9.09
2022-11-25T09:47:32.758Z,9.08
2022-11-25T09:49:59.587Z,8.53
2022-11-25T09:52:50.883Z,8.24
2022-11-25T09:55:22.260Z,8.64
2022-11-25T09:58:20.640Z,9.06
2022-11-25T10:00:50.245Z,9.38
2022-11-25T10:03:22.850Z,9.59
2022-11-25T10:05:53.841Z,9.70
2022-11-25T10:08:25.538Z,8.92
2022-11-25T10:11:17.115Z,8.86
2022-11-25T10:14:04.358Z,8.78
2022-11-25T10:16:51.146Z,8.55
2022-11-25T10:19:47.449Z,7.89
2022-11-25T10:22:22.875Z,7.75
2022-11-25T10:24:51.566Z,7.88
2022-11-25T10:27:36.376Z,8.21
2022-11-25T10:30:14.568Z,7.86
2022-11-25T10:32:46.730Z,7.68
2022-11-25T10:35:34.116Z,8.01
2022-11-25T10:38:04.062Z,8.10
2022-11-25T10:40:31.267Z,8.46
2022-11-25T10:42:59.173Z,8.38
2022-11-25T10:45:37.150Z,8.34
2022-11-25T10:48:41.321Z,8.28
2022-11-25T10:51:38.436Z,8.38
2022-11-25T10:54:12.743Z,8.34
2022-11-25T10:56:53.995Z,8.64
2022-11-25T10:59:34.810Z,8.57
2022-11-25T11:02:13.627Z,9.03
2022-11-25T11:05:09.743Z,9.51
2022-11-25T11:07:39.589Z,9.30
2022-11-25T11:10:23.937Z,9.21
2022-11-25T11:12:59.139Z,9.13
2022-11-25T11:15:42.467Z,8.39
2022-11-25T11:18:24.118Z,8.32
2022-11-25T11:20:54.316Z,8.10
2022-11-25T11:23:21.345Z,8.45
2022-11-25T11:26:20.089Z,8.52
2022-11-25T11:28:47.554Z,8.71
2022-11-25T11:31:23.200Z,8.91
2022-11-25T11:33:59.285Z,8.62
2022-11-25T11:36:50.762Z,8.57
2022-11-25T11:39:38.298Z,8.30
2022-11-25T11:42:26.942Z,8.11
2022-11-25T11:45:24.783Z,7.99
2022-11-25T11:48:21.347Z,8.17
2022-11-25T11:50:57.735Z,8.17
2022-11-25T11:53:36.673Z,8.30
2022-11-25T11:56:36.261Z,8.27
2022-11-25T11:59:30.802Z,8.32
2022-11-25T12:02:15.787Z,7.86
2022-11-25T12:05:10.837Z,7.59
2022-11-25T12:07:52.864Z,7.37
2022-11-25T12:10:24.210Z,7.56
2022-11-25T12:12:57.002Z,7.76
2022-11-25T12:15:49.525Z,7.89
2022-11-25T12:18:44.776Z,7.71
2022-11-25T12:21:45.581Z,7.57
2022-11-25T12:24:21.185Z,7.35
2022-11-25T12:26:57.061Z,7.57
2022-11-25T12:29:42.767Z,7.52
2022-11-25T12:32:24.880Z,7.54
2022-11-25T12:34:58.716Z,7.40
2022-11-25T12:37:51.047Z,7.53
2022-11-25T12:40:20.395Z,7.35
2022-11-25T12:42:49.597Z,7.42
2022-11-25T12:45:22.081Z,7.56
2022-11-25T12:47:49.012Z,7.67
2022-11-25T12:50:20.948Z,7.39
2022-11-25T12:53:15.992Z,7.42
2022-11-25T12:55:42.977Z,7.61
2022-11-25T12:58:33.100Z,7.47
2022-11-25T13:01:12.100Z,7.49
2022-11-25T13:03:51.007Z,7.81
2022-11-25T13:06:44.145Z,7.83
2022-11-25T13:09:14.007Z,7.59
2022-11-25T13:12:04.919Z,7.66
2022-11-25T13:15:04.408Z,7.58
2022-11-25T13:17:38.008Z,7.70
2022-11-25T13:20:29.580Z,7.51
2022-11-25T13:23:05.637Z,7.48
2022-11-25T13:25:33.887Z,7.23
2022-11-25T13:28:03.363Z,7.50
2022-11-25T13:30:32.979Z,7.80
2022-11-25T13:33:12.010Z,7.51
2022-11-25T13:35:50.445Z,7.57
2022-11-25T13:38:29.367Z,7.41
2022-11-25T13:41:00.583Z,7.29
2022-11-25T13:43:28.037Z,7.31
2022-11-25T13:45:56.196Z,7.48
2022-11-25T13:48:31.266Z,7.35
2022-11-25T13:51:16.888Z,7.41
2022-11-25T13:54:01.326Z,7.37
2022-11-25T13:56:36.801Z,7.21
2022-11-25T13:59:14.062Z,7.26
2022-11-25T14:01:52.079Z,7.43
2022-11-25T14:04:44.078Z,7.51
2022-11-25T14:07:30.313Z,7.40
2022-11-25T14:10:16.341Z,7.66
2022-11-25T14:13:18.055Z,7.81
2022-11-25T14:16:07.201Z,7.85
2022-11-25T14:21:50.759Z,7.45
2022-11-25T14:24:41.623Z,7.50
2022-11-25T14:27:22.565Z,7.58
2022-11-25T14:30:06.535Z,7.34
2022-11-25T14:32:48.593Z,7.56
2022-11-25T14:35:20.780Z,7.58
2022-11-25T14:37:52.690Z,7.40
2022-11-25T14:40:30.626Z,7.73
2022-11-25T14:43:07.969Z,7.57
2022-11-25T14:45:35.851Z,7.29
2022-11-25T14:48:24.343Z,7.56
2022-11-25T14:51:00.318Z,7.66
2022-11-25T14:53:28.842Z,7.61
2022-11-25T14:56:00.160Z,7.65
2022-11-25T14:58:27.708Z,7.30
2022-11-25T15:00:57.794Z,7.30
2022-11-25T15:03:25.062Z,7.27
2022-11-25T15:05:57.677Z,7.06
2022-11-25T15:08:25.698Z,7.00
2022-11-25T15:10:59.104Z,7.08
2022-11-25T15:13:41.312Z,6.94
2022-11-25T15:16:11.813Z,7.06
2022-11-25T15:18:43.898Z,7.07
2022-11-25T15:21:14.906Z,7.00
2022-11-25T15:23:41.856Z,7.00
2022-11-25T15:26:21.217Z,7.22
2022-11-25T15:29:04.847Z,7.16
2022-11-25T15:31:34.771Z,7.06
2022-11-25T15:34:04.923Z,7.15
2022-11-25T15:36:31.985Z,7.21
2022-11-25T15:39:13.940Z,7.03
2022-11-25T15:41:43.386Z,7.27
2022-11-25T15:44:20.007Z,7.30
2022-11-25T15:46:55.925Z,7.08
2022-11-25T15:49:23.190Z,7.22
2022-11-25T15:51:55.369Z,7.32
2022-11-25T15:54:32.178Z,7.53
2022-11-25T15:57:14.718Z,7.72
2022-11-25T16:00:02.325Z,7.70
2022-11-25T16:02:42.297Z,7.58
2022-11-25T16:05:15.203Z,7.65
2022-11-25T16:07:51.523Z,7.76
2022-11-25T16:10:26.895Z,7.63
2022-11-25T16:13:30.085Z,7.63
2022-11-25T16:16:12.109Z,7.47
2022-11-25T16:18:57.155Z,7.52
2022-11-25T16:21:38.904Z,7.58
2022-11-25T16:24:05.811Z,7.93
2022-11-25T16:26:38.674Z,7.84
2022-11-25T16:29:17.602Z,8.05
2022-11-25T16:31:44.671Z,8.16
2022-11-25T16:34:22.040Z,8.37
2022-11-25T16:36:48.960Z,8.60
2022-11-25T16:39:16.079Z,8.41
2022-11-25T16:41:46.332Z,8.46
2022-11-25T16:44:19.371Z,7.86
2022-11-25T16:46:46.376Z,7.96
2022-11-25T16:49:14.658Z,8.16
2022-11-25T16:51:42.024Z,8.44
2022-11-25T16:54:08.977Z,8.67
2022-11-25T16:56:41.965Z,8.91
2022-11-25T16:59:22.735Z,8.80
2022-11-25T17:01:49.784Z,8.91
2022-11-25T17:04:17.702Z,8.87
2022-11-25T17:06:50.545Z,8.64
2022-11-25T17:09:21.060Z,8.48
2022-11-25T17:11:54.783Z,8.45
2022-11-25T17:14:28.319Z,8.99
2022-11-25T17:16:55.483Z,8.48
2022-11-25T17:19:22.560Z,8.74
2022-11-25T17:21:49.526Z,8.94
2022-11-25T17:24:22.588Z,8.85
2022-11-25T17:27:00.690Z,8.59
2022-11-25T17:29:48.210Z,8.55
2022-11-25T17:32:16.412Z,9.03
2022-11-25T17:34:43.426Z,8.39
2022-11-25T17:37:18.459Z,8.55
2022-11-25T17:39:45.486Z,8.65
2022-11-25T17:42:17.505Z,8.79
2022-11-25T17:44:49.844Z,8.49
2022-11-25T17:47:19.570Z,8.63
2022-11-25T17:49:46.477Z,8.39
2022-11-25T17:52:13.316Z,8.55
2022-11-25T17:54:40.522Z,8.27
2022-11-25T17:57:11.318Z,8.40
2022-11-25T17:59:38.537Z,8.86
2022-11-25T18:02:18.516Z,9.15
2022-11-25T18:04:45.730Z,8.58
2022-11-25T18:07:12.780Z,8.51
2022-11-25T18:09:40.339Z,8.30
2022-11-25T18:12:10.955Z,8.24
2022-11-25T18:14:40.921Z,8.22
2022-11-25T18:17:11.619Z,7.86
2022-11-25T18:19:38.536Z,7.91
2022-11-25T18:22:14.479Z,8.30
2022-11-25T18:24:42.015Z,8.52
2022-11-25T18:27:21.822Z,8.40
2022-11-25T18:29:49.094Z,8.10
2022-11-25T18:32:16.074Z,8.23
2022-11-25T18:34:43.036Z,8.10
2022-11-25T18:37:12.064Z,8.15
2022-11-25T18:39:39.294Z,8.29
2022-11-25T18:42:07.132Z,8.11
2022-11-25T18:44:43.728Z,8.07
2022-11-25T18:47:13.868Z,8.15
2022-11-25T18:49:40.823Z,8.20
2022-11-25T18:52:07.817Z,8.63
2022-11-25T18:54:35.059Z,8.53
2022-11-25T18:57:02.364Z,8.35
2022-11-25T18:59:34.925Z,8.18
2022-11-25T19:02:02.169Z,8.10
2022-11-25T19:04:29.133Z,8.23
2022-11-25T19:06:56.033Z,8.14
2022-11-25T19:09:22.924Z,8.02
2022-11-25T19:11:55.347Z,8.11
2022-11-25T19:14:36.051Z,8.08
2022-11-25T19:17:07.649Z,7.73
2022-11-25T19:19:36.590Z,7.63
2022-11-25T19:22:10.113Z,7.81
2022-11-25T19:24:37.157Z,7.65
2022-11-25T19:27:04.393Z,7.50
2022-11-25T19:29:41.629Z,7.77
2022-11-25T19:32:22.007Z,7.55
2022-11-25T19:34:53.501Z,7.75
2022-11-25T19:37:22.026Z,7.86
2022-11-25T19:39:53.194Z,7.80
2022-11-25T19:42:20.439Z,7.65
2022-11-25T19:44:47.609Z,7.60
2022-11-25T19:47:24.111Z,7.64
2022-11-25T19:49:54.693Z,7.61
2022-11-25T19:52:24.193Z,7.52
2022-11-25T19:54:51.123Z,7.42
2022-11-25T19:57:21.230Z,7.50
2022-11-25T19:59:48.663Z,7.54
2022-11-25T20:02:19.730Z,7.40
2022-11-25T20:04:49.101Z,7.51
2022-11-25T20:07:19.506Z,7.56
2022-11-25T20:09:47.855Z,7.62
2022-11-25T20:12:30.845Z,7.53
2022-11-25T20:14:57.715Z,7.52
2022-11-25T20:17:34.221Z,7.42
2022-11-25T20:20:25.800Z,7.37
2022-11-25T20:23:11.055Z,7.11
2022-11-25T20:25:44.510Z,7.38
2022-11-25T20:28:23.558Z,7.28
2022-11-25T20:30:52.380Z,7.41
2022-11-25T20:33:24.045Z,7.49
2022-11-25T20:35:59.768Z,7.44
2022-11-25T20:38:30.136Z,7.47
2022-11-25T20:40:58.952Z,7.51
2022-11-25T20:43:39.165Z,7.73
2022-11-25T20:46:12.593Z,7.80
2022-11-25T20:48:39.608Z,7.83
2022-11-25T20:51:12.990Z,7.49
2022-11-25T20:53:43.666Z,7.70
2022-11-25T20:56:14.827Z,7.68
2022-11-25T20:58:42.051Z,7.82
2022-11-25T21:01:09.636Z,7.76
2022-11-25T21:03:36.591Z,7.84
2022-11-25T21:06:16.995Z,7.86
2022-11-25T21:08:47.711Z,7.80
2022-11-25T21:11:15.253Z,7.61
2022-11-25T21:13:42.621Z,7.68
2022-11-25T21:16:09.533Z,7.58
2022-11-25T21:18:36.481Z,7.55
2022-11-25T21:21:04.016Z,7.75
2022-11-25T21:23:35.304Z,7.75
2022-11-25T21:26:06.336Z,7.85
2022-11-25T21:28:37.686Z,8.23
2022-11-25T21:31:09.829Z,7.92
2022-11-25T21:33:38.040Z,7.72
2022-11-25T21:36:05.131Z,7.73
2022-11-25T21:38:32.056Z,7.84
2022-11-25T21:40:58.919Z,7.86
2022-11-25T21:43:34.066Z,7.68
2022-11-25T21:46:07.389Z,7.65
2022-11-25T21:48:34.379Z,7.63
2022-11-25T21:51:01.391Z,7.63
2022-11-25T21:53:30.098Z,7.70
2022-11-25T21:56:01.485Z,7.55
2022-11-25T21:58:30.313Z,7.44
2022-11-25T22:01:00.345Z,7.44
2022-11-25T22:03:31.069Z,7.42
2022-11-25T22:05:58.152Z,7.44
2022-11-25T22:08:25.077Z,7.28
2022-11-25T22:10:54.790Z,7.44
2022-11-25T22:13:27.570Z,7.27
2022-11-25T22:15:57.803Z,7.22
2022-11-25T22:18:36.132Z,7.57
2022-11-25T22:21:03.673Z,7.72
2022-11-25T22:23:30.524Z,7.48
2022-11-25T22:25:57.680Z,7.41
2022-11-25T22:28:27.838Z,7.20
2022-11-25T22:30:57.586Z,7.24
2022-11-25T22:33:30.686Z,7.42
2022-11-25T22:35:57.902Z,7.27
2022-11-25T22:38:24.959Z,7.36
2022-11-25T22:40:56.653Z,7.21
2022-11-25T22:43:28.472Z,7.35
2022-11-25T22:45:56.105Z,7.39
2022-11-25T22:48:35.240Z,7.30
2022-11-25T22:51:02.464Z,7.21
2022-11-25T22:53:29.695Z,7.02
2022-11-25T22:55:56.985Z,6.93
2022-11-25T22:58:25.770Z,6.99
2022-11-25T23:00:52.806Z,6.90
2022-11-25T23:03:33.452Z,7.14
2022-11-25T23:06:02.169Z,6.98
2022-11-25T23:08:31.756Z,6.93
2022-11-25T23:10:59.155Z,7.01
2022-11-25T23:13:26.059Z,7.13
2022-11-25T23:15:55.831Z,6.93
2022-11-25T23:18:39.030Z,6.77
2022-11-25T23:21:14.427Z,6.99
2022-11-25T23:23:41.117Z,7.76
2022-11-25T23:26:10.737Z,8.23
2022-11-25T23:28:37.700Z,8.38
2022-11-25T23:31:05.758Z,8.59
2022-11-25T23:33:55.866Z,8.33
2022-11-25T23:36:29.981Z,7.98
2022-11-25T23:39:02.523Z,7.59
2022-11-25T23:41:32.031Z,7.54
2022-11-25T23:44:06.225Z,7.07
2022-11-25T23:46:36.543Z,7.00
2022-11-25T23:49:06.722Z,7.02
2022-11-25T23:51:33.940Z,7.05
2022-11-25T23:54:00.874Z,7.11
2022-11-25T23:56:28.645Z,7.02
2022-11-25T23:58:55.534Z,6.68
